Terminal Aerodrome Forecast
Issued by NWS

Home | Current Version | Previous Version | Text Only | Print | Product List | Glossary On
Versions: 1 2 3 4 5 6 7 8 9 10 11 12 13 14 15 16 17 18
000
FTUS43 KMQT 221747
TAFIWD
TAF
KIWD 221747Z 2218/2318 09004KT P6SM BKN250
     FM222100 12005KT P6SM OVC070
     FM230200 12004KT 6SM -SN OVC040
     FM230400 13004KT 2SM -SN OVC018
     FM230600 12005KT 3/4SM -SN OVC005
     FM231300 14004KT 3SM -SN OVC008
     FM231500 27005KT P6SM OVC009
      AMD LTD TO CLD VIS AND WIND=

USA.gov is the U.S. government's official web portal to all federal, state and local government web resources and services.